Time;durP1;ratioP1;P1;durP2;ratioP2;P2;SDS_P1;SDS_P2;PMS_P1;PMS_P2;Temp;Humidity;BMP_temperature;BMP_pressure;BME280_temperature;BME280_humidity;BME280_pressure;Samples;Min_cycle;Max_cycle;Signal;HPM_P1;HPM_P2
2023/08/13 00:00:15;;;;;;;3.72;1.30;;;;;;;;;;5057510;28;20215;-70
2023/08/13 00:02:44;;;;;;;1.17;1.08;;;;;;;;;;5064557;28;20242;-71
2023/08/13 00:05:11;;;;;;;1.00;1.00;;;;;;;;;;5052203;28;20203;-70
2023/08/13 00:07:38;;;;;;;2.25;1.55;;;;;;;;;;5061150;28;20226;-70
2023/08/13 00:10:06;;;;;;;1.90;1.60;;;;;;;;;;5068853;28;20215;-71
2023/08/13 00:12:33;;;;;;;1.60;1.50;;;;;;;;;;5063522;28;20211;-71
2023/08/13 00:15:01;;;;;;;1.67;1.58;;;;;;;;;;5052383;28;20207;-71
2023/08/13 00:17:28;;;;;;;1.90;1.70;;;;;;;;;;5054728;28;20200;-70
2023/08/13 00:19:56;;;;;;;1.67;1.58;;;;;;;;;;5056485;28;20210;-71
2023/08/13 00:22:24;;;;;;;2.00;1.90;;;;;;;;;;5052171;28;20215;-71
2023/08/13 00:24:53;;;;;;;1.30;1.20;;;;;;;;;;5051475;28;20213;-71
2023/08/13 00:27:21;;;;;;;1.95;1.50;;;;;;;;;;5066777;28;20237;-71
2023/08/13 00:29:48;;;;;;;3.00;1.77;;;;;;;;;;5071246;28;20214;-71
2023/08/13 00:32:15;;;;;;;2.60;1.90;;;;;;;;;;5071079;28;20301;-71
2023/08/13 00:34:42;;;;;;;3.05;2.33;;;;;;;;;;5050803;28;20235;-71
2023/08/13 00:37:11;;;;;;;2.67;2.42;;;;;;;;;;5068614;28;20207;-71
2023/08/13 00:39:38;;;;;;;4.55;2.70;;;;;;;;;;5054810;28;20208;-71
2023/08/13 00:42:05;;;;;;;3.15;2.38;;;;;;;;;;5051829;28;20210;-71
2023/08/13 00:44:32;;;;;;;2.15;1.70;;;;;;;;;;5051644;28;20199;-71
2023/08/13 00:47:00;;;;;;;2.05;1.80;;;;;;;;;;5051237;28;20224;-71
2023/08/13 00:49:27;;;;;;;3.33;2.40;;;;;;;;;;5051365;28;20211;-71
2023/08/13 00:51:54;;;;;;;4.93;2.88;;;;;;;;;;5049829;28;20306;-71
2023/08/13 00:54:23;;;;;;;3.65;2.50;;;;;;;;;;5051320;28;20222;-71
2023/08/13 00:56:52;;;;;;;3.17;2.67;;;;;;;;;;5051384;28;20213;-71
2023/08/13 00:59:19;;;;;;;2.33;2.20;;;;;;;;;;5051449;28;20309;-70
2023/08/13 01:01:46;;;;;;;3.83;2.70;;;;;;;;;;5051028;28;20211;-72
2023/08/13 01:04:14;;;;;;;2.38;2.17;;;;;;;;;;5052480;28;20226;-73
2023/08/13 01:06:44;;;;;;;3.42;2.70;;;;;;;;;;5052451;28;20235;-72
2023/08/13 01:09:15;;;;;;;2.80;2.60;;;;;;;;;;5050697;28;20211;-72
2023/08/13 01:11:47;;;;;;;2.85;2.35;;;;;;;;;;5051485;28;20215;-72
2023/08/13 01:14:21;;;;;;;2.75;2.50;;;;;;;;;;5051267;28;20211;-72
2023/08/13 01:16:49;;;;;;;3.10;2.90;;;;;;;;;;5051333;28;20207;-71
2023/08/13 01:19:16;;;;;;;2.88;2.67;;;;;;;;;;5054883;28;20217;-72
2023/08/13 01:21:43;;;;;;;3.63;2.90;;;;;;;;;;5058447;28;20218;-73
2023/08/13 01:24:12;;;;;;;3.42;2.60;;;;;;;;;;5055566;28;20219;-72
2023/08/13 01:26:42;;;;;;;4.07;2.55;;;;;;;;;;5055439;28;20243;-71
2023/08/13 01:29:15;;;;;;;4.25;3.13;;;;;;;;;;5055010;28;20211;-71
2023/08/13 01:31:43;;;;;;;2.30;2.20;;;;;;;;;;5054370;28;20209;-72
2023/08/13 01:34:10;;;;;;;3.15;2.95;;;;;;;;;;5059540;28;20260;-72
2023/08/13 01:36:38;;;;;;;3.35;3.05;;;;;;;;;;5059571;28;20202;-72
2023/08/13 01:39:06;;;;;;;2.88;2.67;;;;;;;;;;5059653;28;20213;-72
2023/08/13 01:41:46;;;;;;;4.38;2.90;;;;;;;;;;5059678;28;20238;-71
2023/08/13 01:44:14;;;;;;;3.80;3.50;;;;;;;;;;5058080;28;20290;-72
2023/08/13 01:46:41;;;;;;;2.80;2.60;;;;;;;;;;5060008;28;20235;-73
2023/08/13 01:49:08;;;;;;;5.28;3.50;;;;;;;;;;5060240;28;20218;-72
2023/08/13 01:51:35;;;;;;;3.00;2.80;;;;;;;;;;5054609;28;20208;-72
2023/08/13 01:54:02;;;;;;;3.28;2.95;;;;;;;;;;5056628;28;20208;-71
2023/08/13 01:56:30;;;;;;;3.38;3.10;;;;;;;;;;5060458;28;20209;-71
2023/08/13 01:58:58;;;;;;;3.63;3.33;;;;;;;;;;5060526;28;20243;-72
2023/08/13 02:01:25;;;;;;;4.93;2.83;;;;;;;;;;5053176;28;20218;-72
2023/08/13 02:03:52;;;;;;;3.78;3.45;;;;;;;;;;5054299;28;20208;-72
2023/08/13 02:06:19;;;;;;;4.30;3.90;;;;;;;;;;5059568;28;20211;-72
2023/08/13 02:08:47;;;;;;;3.33;3.03;;;;;;;;;;5061230;28;20218;-72
2023/08/13 02:11:14;;;;;;;3.25;2.80;;;;;;;;;;5061476;28;20211;-68
2023/08/13 02:13:41;;;;;;;3.72;3.42;;;;;;;;;;5061544;28;20208;-72
2023/08/13 02:16:10;;;;;;;3.28;3.08;;;;;;;;;;5060184;28;20217;-70
2023/08/13 02:18:37;;;;;;;4.18;3.00;;;;;;;;;;5057778;28;20203;-71
2023/08/13 02:21:04;;;;;;;2.40;2.30;;;;;;;;;;5062544;28;20200;-72
2023/08/13 02:23:31;;;;;;;2.30;2.10;;;;;;;;;;5053839;28;20265;-71
2023/08/13 02:25:58;;;;;;;2.30;2.08;;;;;;;;;;5060728;28;20214;-72
2023/08/13 02:28:25;;;;;;;3.30;1.90;;;;;;;;;;5062102;28;20226;-72
2023/08/13 02:30:53;;;;;;;2.53;2.25;;;;;;;;;;5062019;28;20213;-72
2023/08/13 02:33:21;;;;;;;2.20;2.00;;;;;;;;;;5061494;28;20206;-72
2023/08/13 02:35:48;;;;;;;2.58;2.10;;;;;;;;;;5053142;28;20207;-70
2023/08/13 02:38:16;;;;;;;1.88;1.77;;;;;;;;;;5052284;28;20199;-72
2023/08/13 02:40:43;;;;;;;2.58;2.22;;;;;;;;;;5052084;28;20214;-72
2023/08/13 02:43:10;;;;;;;1.80;1.70;;;;;;;;;;5053703;28;20211;-65
2023/08/13 02:45:37;;;;;;;2.85;2.15;;;;;;;;;;5057660;28;20207;-65
2023/08/13 02:48:04;;;;;;;2.67;2.47;;;;;;;;;;5053532;28;20219;-65
2023/08/13 02:50:33;;;;;;;3.28;3.00;;;;;;;;;;5055706;28;20211;-64
2023/08/13 02:53:00;;;;;;;3.10;2.80;;;;;;;;;;5063238;28;20217;-65
2023/08/13 02:55:28;;;;;;;4.00;3.65;;;;;;;;;;5056985;28;20234;-65
2023/08/13 02:57:55;;;;;;;4.63;3.83;;;;;;;;;;5052971;28;20245;-65
2023/08/13 03:00:22;;;;;;;4.05;3.67;;;;;;;;;;5058913;28;20294;-65
2023/08/13 03:02:49;;;;;;;2.70;2.50;;;;;;;;;;5064174;28;20234;-65
2023/08/13 03:05:16;;;;;;;2.67;2.22;;;;;;;;;;5063995;28;20214;-66
2023/08/13 03:07:45;;;;;;;3.35;3.13;;;;;;;;;;5060359;28;20231;-65
2023/08/13 03:10:12;;;;;;;3.67;3.40;;;;;;;;;;5064760;28;20203;-65
2023/08/13 03:12:39;;;;;;;2.60;2.40;;;;;;;;;;5064716;28;20230;-65
2023/08/13 03:15:07;;;;;;;3.15;2.80;;;;;;;;;;5064791;28;20203;-65
2023/08/13 03:17:34;;;;;;;2.10;2.00;;;;;;;;;;5064906;28;20217;-65
2023/08/13 03:20:01;;;;;;;2.13;1.73;;;;;;;;;;5056919;28;20215;-65
2023/08/13 03:22:28;;;;;;;2.45;1.92;;;;;;;;;;5065279;28;20208;-64
2023/08/13 03:24:57;;;;;;;3.25;2.95;;;;;;;;;;5058958;28;20303;-64
2023/08/13 03:27:24;;;;;;;2.00;1.90;;;;;;;;;;5065586;28;20223;-65
2023/08/13 03:29:51;;;;;;;2.30;1.90;;;;;;;;;;5058464;28;20215;-65
2023/08/13 03:32:18;;;;;;;4.20;1.70;;;;;;;;;;5063619;28;20211;-64
2023/08/13 03:34:45;;;;;;;2.50;1.80;;;;;;;;;;5052706;28;20220;-65
2023/08/13 03:37:13;;;;;;;2.00;1.80;;;;;;;;;;5052702;28;20207;-64
2023/08/13 03:39:40;;;;;;;1.70;1.60;;;;;;;;;;5052466;28;20209;-65
2023/08/13 03:42:08;;;;;;;2.30;2.10;;;;;;;;;;5051320;28;20214;-65
2023/08/13 03:44:35;;;;;;;2.05;1.85;;;;;;;;;;5066557;28;20229;-65
2023/08/13 03:47:02;;;;;;;1.80;1.70;;;;;;;;;;5055280;28;20219;-65
2023/08/13 03:49:30;;;;;;;2.05;1.83;;;;;;;;;;5062943;28;20200;-65
2023/08/13 03:51:57;;;;;;;1.70;1.50;;;;;;;;;;5052260;28;20207;-64
2023/08/13 03:54:24;;;;;;;2.95;1.70;;;;;;;;;;5052209;28;20213;-71
2023/08/13 03:56:51;;;;;;;1.58;1.48;;;;;;;;;;5052263;28;20211;-72
2023/08/13 03:59:20;;;;;;;1.98;1.60;;;;;;;;;;5061799;28;20238;-71
2023/08/13 04:01:47;;;;;;;2.80;1.80;;;;;;;;;;5056522;28;20203;-72
2023/08/13 04:04:14;;;;;;;1.92;1.50;;;;;;;;;;5056237;28;20207;-72
2023/08/13 04:06:43;;;;;;;1.92;1.50;;;;;;;;;;5068116;28;20213;-72
2023/08/13 04:09:10;;;;;;;1.70;1.60;;;;;;;;;;5067974;28;20235;-71
2023/08/13 04:11:37;;;;;;;3.47;2.05;;;;;;;;;;5068023;28;20207;-72
2023/08/13 04:14:04;;;;;;;1.83;1.73;;;;;;;;;;5068645;28;20217;-72
2023/08/13 04:16:33;;;;;;;2.78;2.28;;;;;;;;;;5064320;28;20211;-71
2023/08/13 04:19:00;;;;;;;2.25;1.92;;;;;;;;;;5050018;28;20211;-71
2023/08/13 04:21:27;;;;;;;2.45;2.08;;;;;;;;;;5051414;28;20204;-72
2023/08/13 04:23:55;;;;;;;1.98;1.80;;;;;;;;;;5051924;28;20211;-71
2023/08/13 04:26:23;;;;;;;1.75;1.52;;;;;;;;;;5054087;28;20207;-72
2023/08/13 04:28:50;;;;;;;2.47;1.90;;;;;;;;;;5069150;28;20234;-72
2023/08/13 04:31:19;;;;;;;4.35;1.98;;;;;;;;;;5069683;28;20206;-72
2023/08/13 04:33:48;;;;;;;2.10;1.90;;;;;;;;;;5063673;28;20324;-72
2023/08/13 04:36:15;;;;;;;2.78;1.90;;;;;;;;;;5069959;28;20207;-71
2023/08/13 04:38:42;;;;;;;3.33;1.90;;;;;;;;;;5070093;28;20212;-72
2023/08/13 04:41:10;;;;;;;2.65;1.60;;;;;;;;;;5069821;28;20217;-71
2023/08/13 04:43:37;;;;;;;2.63;1.90;;;;;;;;;;5070383;28;20218;-72
2023/08/13 04:46:04;;;;;;;3.33;1.73;;;;;;;;;;5070554;28;20214;-72
2023/08/13 04:48:44;;;;;;;4.05;1.80;;;;;;;;;;5069472;28;20317;-71
2023/08/13 04:51:13;;;;;;;1.83;1.73;;;;;;;;;;5048785;28;20210;-72
2023/08/13 04:53:40;;;;;;;2.20;2.00;;;;;;;;;;5050955;28;20211;-72
2023/08/13 04:56:07;;;;;;;3.05;2.10;;;;;;;;;;5051316;28;20215;-72
2023/08/13 04:58:35;;;;;;;2.45;2.17;;;;;;;;;;5051440;28;20249;-72
2023/08/13 05:01:02;;;;;;;2.85;2.50;;;;;;;;;;5051485;28;20208;-72
2023/08/13 05:03:29;;;;;;;4.07;2.63;;;;;;;;;;5051338;28;20217;-64
2023/08/13 05:05:56;;;;;;;3.22;2.70;;;;;;;;;;5051381;28;20238;-65
2023/08/13 05:08:25;;;;;;;3.75;2.13;;;;;;;;;;5049613;28;20227;-65
2023/08/13 05:10:52;;;;;;;2.47;2.28;;;;;;;;;;5051341;28;20362;-65
2023/08/13 05:13:19;;;;;;;3.42;2.13;;;;;;;;;;5051314;28;20217;-64
2023/08/13 05:15:46;;;;;;;4.88;1.90;;;;;;;;;;5052112;28;20214;-65
2023/08/13 05:18:13;;;;;;;2.33;2.10;;;;;;;;;;5052411;28;20207;-64
2023/08/13 05:20:41;;;;;;;2.97;2.03;;;;;;;;;;5054603;28;20200;-65
2023/08/13 05:23:08;;;;;;;2.67;2.28;;;;;;;;;;5051106;28;20215;-64
2023/08/13 05:25:38;;;;;;;2.60;2.40;;;;;;;;;;5052032;28;20218;-65
2023/08/13 05:28:06;;;;;;;3.90;3.60;;;;;;;;;;5053210;28;20233;-64
2023/08/13 05:30:33;;;;;;;3.05;2.72;;;;;;;;;;5051640;28;20219;-64
2023/08/13 05:33:00;;;;;;;3.17;2.88;;;;;;;;;;5050962;28;20223;-65
2023/08/13 05:35:28;;;;;;;3.50;3.20;;;;;;;;;;5055303;28;20203;-65
2023/08/13 05:37:55;;;;;;;4.18;2.60;;;;;;;;;;5053871;28;20208;-64
2023/08/13 05:40:22;;;;;;;2.75;2.40;;;;;;;;;;5052136;28;20222;-65
2023/08/13 05:42:51;;;;;;;4.80;2.90;;;;;;;;;;5050476;28;20208;-65
2023/08/13 05:45:18;;;;;;;3.03;2.67;;;;;;;;;;5054334;28;20222;-65
2023/08/13 05:47:45;;;;;;;3.20;2.90;;;;;;;;;;5054006;28;20204;-65
2023/08/13 05:50:13;;;;;;;4.15;3.85;;;;;;;;;;5054097;28;20235;-65
2023/08/13 05:52:40;;;;;;;3.22;2.78;;;;;;;;;;5057500;28;20210;-65
2023/08/13 05:55:07;;;;;;;4.07;3.65;;;;;;;;;;5054789;28;20214;-65
2023/08/13 05:57:35;;;;;;;4.05;3.30;;;;;;;;;;5050537;28;20243;-65
2023/08/13 06:00:09;;;;;;;4.07;3.60;;;;;;;;;;5052365;28;20239;-66
2023/08/13 06:02:36;;;;;;;2.78;2.53;;;;;;;;;;5047706;28;20215;-66
2023/08/13 06:05:04;;;;;;;5.57;3.97;;;;;;;;;;5051405;28;20234;-66
2023/08/13 06:07:31;;;;;;;4.72;4.18;;;;;;;;;;5054659;28;20294;-65
2023/08/13 06:09:58;;;;;;;5.18;4.20;;;;;;;;;;5054570;28;20229;-65
2023/08/13 06:12:25;;;;;;;4.45;4.15;;;;;;;;;;5054276;28;20215;-65
2023/08/13 06:14:52;;;;;;;6.13;5.00;;;;;;;;;;5060921;28;20207;-72
2023/08/13 06:17:21;;;;;;;5.82;5.32;;;;;;;;;;5059798;28;20219;-71
2023/08/13 06:19:48;;;;;;;5.35;4.82;;;;;;;;;;5060540;28;20222;-72
2023/08/13 06:22:15;;;;;;;5.10;4.70;;;;;;;;;;5054653;28;20211;-72
2023/08/13 06:24:43;;;;;;;5.88;4.60;;;;;;;;;;5054069;28;20211;-71
2023/08/13 06:27:11;;;;;;;5.10;4.60;;;;;;;;;;5054193;28;20217;-72
2023/08/13 06:29:38;;;;;;;5.93;5.38;;;;;;;;;;5055372;28;20317;-71
2023/08/13 06:32:05;;;;;;;4.63;4.30;;;;;;;;;;5057833;28;20213;-72
2023/08/13 06:34:34;;;;;;;4.63;4.32;;;;;;;;;;5053732;28;20211;-72
2023/08/13 06:37:03;;;;;;;5.57;5.07;;;;;;;;;;5052473;28;20203;-72
2023/08/13 06:39:30;;;;;;;4.38;4.07;;;;;;;;;;5052398;28;20207;-71
2023/08/13 06:41:58;;;;;;;5.55;4.65;;;;;;;;;;5058707;28;20241;-72
2023/08/13 06:44:25;;;;;;;4.10;3.80;;;;;;;;;;5061364;28;20215;-71
2023/08/13 06:46:52;;;;;;;4.45;3.83;;;;;;;;;;5061661;28;20207;-71
2023/08/13 06:49:20;;;;;;;4.65;3.85;;;;;;;;;;5056197;28;20237;-71
2023/08/13 06:51:48;;;;;;;4.03;3.70;;;;;;;;;;5053529;28;20213;-72
2023/08/13 06:54:15;;;;;;;4.55;3.90;;;;;;;;;;5053488;28;20212;-70
2023/08/13 06:56:43;;;;;;;5.57;3.67;;;;;;;;;;5052888;28;20210;-72
2023/08/13 06:59:10;;;;;;;5.25;3.63;;;;;;;;;;5053372;28;20231;-71
2023/08/13 07:01:38;;;;;;;3.42;3.10;;;;;;;;;;5053284;28;20308;-72
2023/08/13 07:04:07;;;;;;;2.53;2.42;;;;;;;;;;5058753;28;20211;-72
2023/08/13 07:06:34;;;;;;;3.92;3.05;;;;;;;;;;5053720;28;20211;-72
2023/08/13 07:09:03;;;;;;;4.40;3.10;;;;;;;;;;5052998;28;20253;-72
2023/08/13 07:11:32;;;;;;;2.97;2.60;;;;;;;;;;5061822;28;20219;-72
2023/08/13 07:13:59;;;;;;;2.10;2.00;;;;;;;;;;5063708;28;20207;-71
2023/08/13 07:16:26;;;;;;;2.60;2.40;;;;;;;;;;5061512;28;20210;-72
2023/08/13 07:18:53;;;;;;;3.67;3.20;;;;;;;;;;5063533;28;20214;-72
2023/08/13 07:21:21;;;;;;;3.30;2.92;;;;;;;;;;5058230;28;20203;-73
2023/08/13 07:23:48;;;;;;;3.20;2.90;;;;;;;;;;5052321;28;20207;-65
2023/08/13 07:26:17;;;;;;;3.17;2.90;;;;;;;;;;5053056;28;20215;-64
2023/08/13 07:28:44;;;;;;;3.17;2.88;;;;;;;;;;5052942;28;20227;-65
2023/08/13 07:31:11;;;;;;;3.72;2.80;;;;;;;;;;5053038;28;20294;-64
2023/08/13 07:33:38;;;;;;;5.60;2.78;;;;;;;;;;5052633;28;20211;-65
2023/08/13 07:36:06;;;;;;;3.05;2.55;;;;;;;;;;5052608;28;20214;-64
2023/08/13 07:38:34;;;;;;;2.95;2.63;;;;;;;;;;5051462;28;20195;-64
2023/08/13 07:41:03;;;;;;;2.83;2.38;;;;;;;;;;5053470;28;20207;-64
2023/08/13 07:43:31;;;;;;;4.03;2.50;;;;;;;;;;5060640;28;20215;-64
2023/08/13 07:45:59;;;;;;;2.92;2.35;;;;;;;;;;5065388;28;20210;-64
2023/08/13 07:48:26;;;;;;;5.20;2.40;;;;;;;;;;5064248;28;20217;-64
2023/08/13 07:50:53;;;;;;;3.75;2.30;;;;;;;;;;5056535;28;20206;-64
2023/08/13 07:53:21;;;;;;;5.00;2.22;;;;;;;;;;5052847;28;20217;-64
2023/08/13 07:55:49;;;;;;;3.17;2.25;;;;;;;;;;5056293;28;20215;-64
2023/08/13 07:58:16;;;;;;;2.60;2.20;;;;;;;;;;5054569;28;20238;-64
2023/08/13 08:00:45;;;;;;;4.00;2.15;;;;;;;;;;5056443;28;20217;-64
2023/08/13 08:03:12;;;;;;;2.55;2.17;;;;;;;;;;5062867;28;20207;-63
2023/08/13 08:05:40;;;;;;;4.10;2.10;;;;;;;;;;5051450;28;20294;-64
2023/08/13 08:08:08;;;;;;;2.15;1.90;;;;;;;;;;5055441;28;20232;-64
2023/08/13 08:10:35;;;;;;;2.67;2.03;;;;;;;;;;5063362;28;20285;-65
2023/08/13 08:13:03;;;;;;;2.97;2.03;;;;;;;;;;5051933;28;20208;-64
2023/08/13 08:15:30;;;;;;;3.95;1.90;;;;;;;;;;5055889;28;20219;-64
2023/08/13 08:17:58;;;;;;;3.25;2.00;;;;;;;;;;5054930;28;20203;-64
2023/08/13 08:20:25;;;;;;;3.28;1.90;;;;;;;;;;5054859;28;20262;-63
2023/08/13 08:22:53;;;;;;;4.28;2.10;;;;;;;;;;5066505;28;20217;-64
2023/08/13 08:25:20;;;;;;;4.40;1.70;;;;;;;;;;5058234;28;20222;-64
2023/08/13 08:27:47;;;;;;;3.67;1.95;;;;;;;;;;5066504;28;20214;-63
2023/08/13 08:30:14;;;;;;;3.08;1.70;;;;;;;;;;5057134;28;20229;-64
2023/08/13 08:32:42;;;;;;;2.58;1.65;;;;;;;;;;5068791;28;20210;-63
2023/08/13 08:35:10;;;;;;;2.42;1.88;;;;;;;;;;5058571;28;20209;-71
2023/08/13 08:37:37;;;;;;;2.60;1.98;;;;;;;;;;5051852;28;20214;-71
2023/08/13 08:40:05;;;;;;;4.53;2.17;;;;;;;;;;5065497;28;20233;-71
2023/08/13 08:42:32;;;;;;;2.78;1.95;;;;;;;;;;5058789;28;20206;-69
2023/08/13 08:45:00;;;;;;;2.85;1.60;;;;;;;;;;5054464;28;20214;-70
2023/08/13 08:47:27;;;;;;;2.08;1.83;;;;;;;;;;5059164;28;20208;-71
2023/08/13 08:49:55;;;;;;;3.42;1.83;;;;;;;;;;5062122;28;20229;-71
2023/08/13 08:52:24;;;;;;;2.05;1.40;;;;;;;;;;5052392;28;20207;-71
2023/08/13 08:54:51;;;;;;;3.60;2.00;;;;;;;;;;5054072;28;20208;-71
2023/08/13 08:57:18;;;;;;;3.17;1.85;;;;;;;;;;5062770;28;20207;-70
2023/08/13 08:59:46;;;;;;;2.05;1.52;;;;;;;;;;5050902;28;20337;-71
2023/08/13 09:02:14;;;;;;;2.58;1.52;;;;;;;;;;5051563;28;20271;-71
2023/08/13 09:04:41;;;;;;;3.22;1.58;;;;;;;;;;5063741;28;20215;-70
2023/08/13 09:07:08;;;;;;;3.67;1.70;;;;;;;;;;5070518;28;20217;-71
2023/08/13 09:09:37;;;;;;;3.35;1.70;;;;;;;;;;5066485;28;20245;-71
2023/08/13 09:12:05;;;;;;;6.65;1.67;;;;;;;;;;5056695;28;20257;-71
2023/08/13 09:14:32;;;;;;;3.20;1.70;;;;;;;;;;5051270;28;20249;-71
2023/08/13 09:16:59;;;;;;;2.15;1.55;;;;;;;;;;5051253;28;20207;-71
2023/08/13 09:19:27;;;;;;;3.20;1.95;;;;;;;;;;5060289;28;20294;-70
2023/08/13 09:21:55;;;;;;;3.67;1.58;;;;;;;;;;5048520;28;20207;-70
2023/08/13 09:24:32;;;;;;;3.55;1.90;;;;;;;;;;5050235;28;20213;-70
2023/08/13 09:27:01;;;;;;;4.43;1.70;;;;;;;;;;5051632;28;20207;-71
2023/08/13 09:29:30;;;;;;;3.83;1.85;;;;;;;;;;5054550;28;20374;-70
2023/08/13 09:31:57;;;;;;;3.60;2.00;;;;;;;;;;5051001;28;20207;-69
2023/08/13 09:34:25;;;;;;;4.97;1.80;;;;;;;;;;5052286;28;20207;-70
2023/08/13 09:36:53;;;;;;;2.70;1.45;;;;;;;;;;5053085;28;20302;-70
2023/08/13 09:39:20;;;;;;;5.38;2.00;;;;;;;;;;5052671;28;20208;-70
2023/08/13 09:41:49;;;;;;;2.50;1.63;;;;;;;;;;5054567;28;20207;-70
2023/08/13 09:44:20;;;;;;;5.85;1.77;;;;;;;;;;5056537;28;20211;-63
2023/08/13 09:46:49;;;;;;;3.25;1.70;;;;;;;;;;5058573;28;20207;-64
2023/08/13 09:49:17;;;;;;;3.63;1.65;;;;;;;;;;5055206;28;20234;-64
2023/08/13 09:51:45;;;;;;;2.85;1.90;;;;;;;;;;5054348;28;20200;-63
2023/08/13 09:54:14;;;;;;;3.50;1.63;;;;;;;;;;5056422;28;20274;-63
2023/08/13 09:56:42;;;;;;;4.25;1.67;;;;;;;;;;5054976;28;20218;-63
2023/08/13 09:59:09;;;;;;;2.60;1.70;;;;;;;;;;5054510;28;20343;-65
2023/08/13 10:01:38;;;;;;;3.67;1.90;;;;;;;;;;5055942;28;20271;-63
2023/08/13 10:04:06;;;;;;;4.93;1.77;;;;;;;;;;5054174;28;20211;-63
2023/08/13 10:06:33;;;;;;;2.25;1.45;;;;;;;;;;5054666;28;20211;-63
2023/08/13 10:09:01;;;;;;;3.25;1.80;;;;;;;;;;5059059;28;20207;-63
2023/08/13 10:11:28;;;;;;;2.42;1.77;;;;;;;;;;5054931;28;20406;-63
2023/08/13 10:13:56;;;;;;;2.88;1.70;;;;;;;;;;5053349;28;20212;-63
2023/08/13 10:16:24;;;;;;;2.97;1.35;;;;;;;;;;5052020;28;20237;-63
2023/08/13 10:18:52;;;;;;;6.57;1.52;;;;;;;;;;5055752;28;20207;-63
2023/08/13 10:21:33;;;;;;;4.53;1.50;;;;;;;;;;5059012;28;20196;-63
2023/08/13 10:24:01;;;;;;;3.05;1.50;;;;;;;;;;5054459;28;20207;-62
2023/08/13 10:26:29;;;;;;;2.17;1.52;;;;;;;;;;5056276;28;20203;-63
2023/08/13 10:28:56;;;;;;;2.42;1.80;;;;;;;;;;5052611;28;20214;-63
2023/08/13 10:31:30;;;;;;;4.03;1.70;;;;;;;;;;5056461;28;20222;-63
2023/08/13 10:34:09;;;;;;;3.55;1.90;;;;;;;;;;5055584;28;20206;-62
2023/08/13 10:36:47;;;;;;;2.83;1.70;;;;;;;;;;5060148;28;20211;-62
2023/08/13 10:39:33;;;;;;;2.88;1.52;;;;;;;;;;5053308;28;20211;-64
2023/08/13 10:42:01;;;;;;;3.97;1.60;;;;;;;;;;5057887;28;20250;-63
2023/08/13 10:44:29;;;;;;;5.00;2.10;;;;;;;;;;5057929;28;20211;-62
2023/08/13 10:46:56;;;;;;;4.28;1.70;;;;;;;;;;5054370;28;20211;-63
2023/08/13 10:49:25;;;;;;;5.03;1.80;;;;;;;;;;5062931;28;20207;-63
2023/08/13 10:51:53;;;;;;;3.53;1.65;;;;;;;;;;5057359;28;20208;-64
2023/08/13 10:54:21;;;;;;;3.78;1.30;;;;;;;;;;5054238;28;20214;-63
2023/08/13 10:56:54;;;;;;;4.97;1.77;;;;;;;;;;5054571;28;20199;-63
2023/08/13 10:59:28;;;;;;;2.95;1.65;;;;;;;;;;5055960;28;20242;-63
2023/08/13 11:02:11;;;;;;;5.38;1.80;;;;;;;;;;5051169;28;20199;-63
2023/08/13 11:04:39;;;;;;;3.30;1.83;;;;;;;;;;5049657;28;20213;-63
2023/08/13 11:07:07;;;;;;;6.35;1.83;;;;;;;;;;5054753;28;20203;-62
2023/08/13 11:09:34;;;;;;;5.35;1.48;;;;;;;;;;5051056;28;20690;-63
2023/08/13 11:12:01;;;;;;;2.70;1.35;;;;;;;;;;5061787;28;20225;-63
2023/08/13 11:14:29;;;;;;;3.53;1.63;;;;;;;;;;5057317;28;20299;-63
2023/08/13 11:16:57;;;;;;;7.55;1.75;;;;;;;;;;5053173;28;20211;-63
2023/08/13 11:19:24;;;;;;;4.80;1.67;;;;;;;;;;5054910;28;20209;-62
2023/08/13 11:21:54;;;;;;;3.55;1.60;;;;;;;;;;5054846;28;20209;-63
2023/08/13 11:24:21;;;;;;;3.85;1.70;;;;;;;;;;5061898;28;20575;-63
2023/08/13 11:26:49;;;;;;;4.70;1.90;;;;;;;;;;5054306;28;20208;-63
2023/08/13 11:29:20;;;;;;;3.13;1.65;;;;;;;;;;5055751;28;20220;-63
2023/08/13 11:31:47;;;;;;;3.50;1.60;;;;;;;;;;5061328;28;20235;-63
2023/08/13 11:34:15;;;;;;;3.47;1.50;;;;;;;;;;5060467;28;20230;-63
2023/08/13 11:36:43;;;;;;;3.53;1.90;;;;;;;;;;5056865;28;20207;-62
2023/08/13 11:39:12;;;;;;;4.18;1.83;;;;;;;;;;5050385;28;20203;-62
2023/08/13 11:41:39;;;;;;;4.30;1.63;;;;;;;;;;5063392;28;20207;-63
2023/08/13 11:44:10;;;;;;;4.43;1.80;;;;;;;;;;5054827;28;20213;-63
2023/08/13 11:46:56;;;;;;;4.95;1.50;;;;;;;;;;5057723;28;20249;-62
2023/08/13 11:49:24;;;;;;;4.05;1.92;;;;;;;;;;5050947;28;20214;-63
2023/08/13 11:51:51;;;;;;;1.55;1.40;;;;;;;;;;5056334;28;20530;-62
2023/08/13 11:54:20;;;;;;;6.07;1.90;;;;;;;;;;5052804;28;20211;-62
2023/08/13 11:56:50;;;;;;;5.80;1.98;;;;;;;;;;5055788;28;20525;-62
2023/08/13 11:59:22;;;;;;;5.82;1.92;;;;;;;;;;5054312;28;20333;-62
2023/08/13 12:01:52;;;;;;;4.75;1.85;;;;;;;;;;5053282;28;20202;-62
2023/08/13 12:04:19;;;;;;;4.07;1.75;;;;;;;;;;5064110;28;20251;-69
2023/08/13 12:06:47;;;;;;;4.63;1.65;;;;;;;;;;5059793;28;20212;-69
2023/08/13 12:09:14;;;;;;;3.30;1.77;;;;;;;;;;5056904;28;20211;-68
2023/08/13 12:11:43;;;;;;;3.13;1.63;;;;;;;;;;5057432;28;20226;-68
2023/08/13 12:14:10;;;;;;;3.60;1.80;;;;;;;;;;5048918;28;20207;-68
2023/08/13 12:16:37;;;;;;;3.58;1.60;;;;;;;;;;5064530;28;20211;-68
2023/08/13 12:19:06;;;;;;;4.10;1.52;;;;;;;;;;5065477;28;20211;-68
2023/08/13 12:21:33;;;;;;;4.78;1.90;;;;;;;;;;5065840;28;20199;-68
2023/08/13 12:24:00;;;;;;;4.32;1.70;;;;;;;;;;5051967;28;20207;-68
2023/08/13 12:26:27;;;;;;;2.72;1.58;;;;;;;;;;5053831;28;20203;-68
2023/08/13 12:28:56;;;;;;;3.03;1.60;;;;;;;;;;5051116;28;20225;-69
2023/08/13 12:31:25;;;;;;;2.20;1.50;;;;;;;;;;5066275;28;20227;-68
2023/08/13 12:33:52;;;;;;;2.17;1.60;;;;;;;;;;5066050;28;20289;-68
2023/08/13 12:36:20;;;;;;;4.15;1.50;;;;;;;;;;5065792;28;20219;-68
2023/08/13 12:38:47;;;;;;;3.88;1.90;;;;;;;;;;5054536;28;20207;-68
2023/08/13 12:41:14;;;;;;;2.28;1.60;;;;;;;;;;5058155;28;20199;-66
2023/08/13 12:43:41;;;;;;;4.65;1.67;;;;;;;;;;5065445;28;20211;-67
2023/08/13 12:46:10;;;;;;;3.35;1.70;;;;;;;;;;5058505;28;20215;-68
2023/08/13 12:48:38;;;;;;;4.60;2.05;;;;;;;;;;5051609;28;20215;-67
2023/08/13 12:51:06;;;;;;;3.17;1.77;;;;;;;;;;5050676;28;20232;-67
2023/08/13 12:53:34;;;;;;;3.05;1.60;;;;;;;;;;5057212;28;20211;-67
2023/08/13 12:56:04;;;;;;;2.95;1.60;;;;;;;;;;5053315;28;20208;-68
2023/08/13 12:58:32;;;;;;;2.63;1.58;;;;;;;;;;5053923;28;20231;-68
2023/08/13 13:00:59;;;;;;;3.03;1.85;;;;;;;;;;5049185;28;20203;-66
2023/08/13 13:03:28;;;;;;;4.47;1.83;;;;;;;;;;5047881;28;20212;-67
2023/08/13 13:05:56;;;;;;;2.00;1.55;;;;;;;;;;5052649;28;20275;-68
2023/08/13 13:08:23;;;;;;;2.92;1.70;;;;;;;;;;5067057;28;20215;-67
2023/08/13 13:10:50;;;;;;;2.55;1.50;;;;;;;;;;5068445;28;20226;-68
2023/08/13 13:13:17;;;;;;;2.40;1.50;;;;;;;;;;5068263;28;20207;-67
2023/08/13 13:15:44;;;;;;;3.03;1.70;;;;;;;;;;5072681;28;20213;-62
2023/08/13 13:18:12;;;;;;;3.53;2.00;;;;;;;;;;5071808;28;20214;-62
2023/08/13 13:20:40;;;;;;;4.63;2.08;;;;;;;;;;5062302;28;20202;-62
2023/08/13 13:23:08;;;;;;;5.40;1.55;;;;;;;;;;5054733;28;20265;-61
2023/08/13 13:25:35;;;;;;;3.75;1.58;;;;;;;;;;5058792;28;20210;-62
2023/08/13 13:28:02;;;;;;;3.25;1.55;;;;;;;;;;5055285;28;20314;-61
2023/08/13 13:30:32;;;;;;;2.88;1.70;;;;;;;;;;5054823;28;20230;-63
2023/08/13 13:32:59;;;;;;;3.95;1.88;;;;;;;;;;5055434;28;20211;-61
2023/08/13 13:35:26;;;;;;;3.17;1.77;;;;;;;;;;5055314;28;20207;-61
2023/08/13 13:37:55;;;;;;;4.47;1.90;;;;;;;;;;5065998;28;20203;-62
2023/08/13 13:40:22;;;;;;;2.90;1.83;;;;;;;;;;5067184;28;20207;-62
2023/08/13 13:42:50;;;;;;;2.63;1.65;;;;;;;;;;5055303;28;20207;-62
2023/08/13 13:45:18;;;;;;;4.82;1.55;;;;;;;;;;5055117;28;20223;-62
2023/08/13 13:47:46;;;;;;;3.03;1.40;;;;;;;;;;5055511;28;20269;-63
2023/08/13 13:50:13;;;;;;;2.25;1.60;;;;;;;;;;5055150;28;20210;-62
2023/08/13 13:52:40;;;;;;;2.60;1.63;;;;;;;;;;5056765;28;20208;-63
2023/08/13 13:55:09;;;;;;;1.50;1.38;;;;;;;;;;5055284;28;20211;-62
2023/08/13 13:57:36;;;;;;;3.22;1.55;;;;;;;;;;5058930;28;20203;-62
2023/08/13 14:00:04;;;;;;;3.10;1.45;;;;;;;;;;5054826;28;20250;-62
2023/08/13 14:02:31;;;;;;;3.70;1.58;;;;;;;;;;5054303;28;20264;-61
2023/08/13 14:04:58;;;;;;;3.90;1.60;;;;;;;;;;5054542;28;20211;-62
2023/08/13 14:07:26;;;;;;;3.20;1.55;;;;;;;;;;5059820;28;20208;-62
2023/08/13 14:09:54;;;;;;;3.08;1.60;;;;;;;;;;5055997;28;20207;-62
2023/08/13 14:12:23;;;;;;;2.67;1.58;;;;;;;;;;5053456;28;20238;-62
2023/08/13 14:14:50;;;;;;;3.33;1.77;;;;;;;;;;5054963;28;20286;-62
2023/08/13 14:17:17;;;;;;;3.05;1.50;;;;;;;;;;5059207;28;20217;-61
2023/08/13 14:19:44;;;;;;;3.97;1.90;;;;;;;;;;5059477;28;20218;-61
2023/08/13 14:22:11;;;;;;;3.17;1.58;;;;;;;;;;5062552;28;20198;-62
2023/08/13 14:24:39;;;;;;;2.85;1.58;;;;;;;;;;5056106;28;20208;-67
2023/08/13 14:27:06;;;;;;;2.92;1.20;;;;;;;;;;5054461;28;20215;-68
2023/08/13 14:29:34;;;;;;;3.53;1.50;;;;;;;;;;5053770;28;20203;-67
2023/08/13 14:32:02;;;;;;;2.20;1.60;;;;;;;;;;5054035;28;20237;-67
2023/08/13 14:34:29;;;;;;;3.22;1.48;;;;;;;;;;5057925;28;20246;-67
2023/08/13 14:36:56;;;;;;;2.15;1.48;;;;;;;;;;5055871;28;20215;-67
2023/08/13 14:39:23;;;;;;;3.00;1.58;;;;;;;;;;5054460;28;20226;-67
2023/08/13 14:41:50;;;;;;;2.42;1.45;;;;;;;;;;5057404;28;20203;-68
2023/08/13 14:44:17;;;;;;;1.73;1.42;;;;;;;;;;5057323;28;20238;-67
2023/08/13 14:46:46;;;;;;;2.15;1.65;;;;;;;;;;5053705;28;20214;-67